createdAt,value
2023-02-24T00:02:01.508Z,38.03
2023-02-24T00:04:34.678Z,38.24
2023-02-24T00:07:03.683Z,38.04
2023-02-24T00:09:34.371Z,38.05
2023-02-24T00:12:09.018Z,38.01
2023-02-24T00:14:41.248Z,38.20
2023-02-24T00:17:10.925Z,37.94
2023-02-24T00:19:41.118Z,38.21
2023-02-24T00:22:10.695Z,38.19
2023-02-24T00:24:40.231Z,38.43
2023-02-24T00:27:12.639Z,38.67
2023-02-24T00:29:42.793Z,39.16
2023-02-24T00:32:14.991Z,39.34
2023-02-24T00:34:45.078Z,39.50
2023-02-24T00:37:15.555Z,39.64
2023-02-24T00:39:44.308Z,39.72
2023-02-24T00:42:13.381Z,39.82
2023-02-24T00:44:45.453Z,39.83
2023-02-24T00:47:16.810Z,39.92
2023-02-24T00:49:47.043Z,40.04
2023-02-24T00:52:18.860Z,40.01
2023-02-24T00:54:49.303Z,40.01
2023-02-24T00:57:21.392Z,40.04
2023-02-24T00:59:51.749Z,40.13
2023-02-24T01:02:21.492Z,40.05
2023-02-24T01:04:51.956Z,40.07
2023-02-24T01:07:20.612Z,40.18
2023-02-24T01:09:52.318Z,40.31
2023-02-24T01:12:37.898Z,40.24
2023-02-24T01:15:10.144Z,40.25
2023-02-24T01:17:38.817Z,40.56
2023-02-24T01:20:16.777Z,40.56
2023-02-24T01:22:47.915Z,40.52
2023-02-24T01:25:17.051Z,40.66
2023-02-24T01:27:45.520Z,40.67
2023-02-24T01:30:16.433Z,40.80
2023-02-24T01:32:46.811Z,40.61
2023-02-24T01:35:17.872Z,40.84
2023-02-24T01:37:46.423Z,40.70
2023-02-24T01:40:18.756Z,40.86
2023-02-24T01:42:50.507Z,40.67
2023-02-24T01:45:28.806Z,40.95
2023-02-24T01:48:01.891Z,40.97
2023-02-24T01:50:33.766Z,41.06
2023-02-24T01:53:05.836Z,41.26
2023-02-24T01:55:41.709Z,41.26
2023-02-24T01:58:17.618Z,41.35
2023-02-24T02:00:47.768Z,41.53
2023-02-24T02:03:31.159Z,41.56
2023-02-24T02:06:11.222Z,41.79
2023-02-24T02:08:43.378Z,41.61
2023-02-24T02:11:14.731Z,41.79
2023-02-24T02:13:46.252Z,41.70
2023-02-24T02:16:53.220Z,41.79
2023-02-24T02:20:16.063Z,41.97
2023-02-24T02:23:17.474Z,42.06
2023-02-24T02:26:10.908Z,42.08
2023-02-24T02:29:25.541Z,42.20
2023-02-24T02:32:41.174Z,42.23
2023-02-24T02:35:19.141Z,42.32
2023-02-24T02:37:57.157Z,42.40
2023-02-24T02:40:37.650Z,42.76
2023-02-24T02:43:15.860Z,42.83
2023-02-24T02:45:49.183Z,42.77
2023-02-24T02:48:24.446Z,43.20
2023-02-24T02:50:57.693Z,43.16
2023-02-24T02:53:32.715Z,43.28
2023-02-24T02:56:08.086Z,43.34
2023-02-24T02:58:42.695Z,43.47
2023-02-24T03:01:13.607Z,43.56
2023-02-24T03:03:47.014Z,43.51
2023-02-24T03:06:24.923Z,43.59
2023-02-24T03:08:59.080Z,43.61
2023-02-24T03:11:28.052Z,43.63
2023-02-24T03:13:58.760Z,43.79
2023-02-24T03:16:28.925Z,43.91
2023-02-24T03:19:04.223Z,44.15
2023-02-24T03:21:39.883Z,44.28
2023-02-24T03:24:09.473Z,44.25
2023-02-24T03:26:46.537Z,44.37
2023-02-24T03:29:24.068Z,44.35
2023-02-24T03:32:00.538Z,44.39
2023-02-24T03:34:39.625Z,44.32
2023-02-24T03:37:09.926Z,44.35
2023-02-24T03:39:38.458Z,44.18
2023-02-24T03:42:12.046Z,44.33
2023-02-24T03:44:40.517Z,44.50
2023-02-24T03:47:10.148Z,44.42
2023-02-24T03:49:41.483Z,44.32
2023-02-24T03:52:25.929Z,44.29
2023-02-24T03:55:22.655Z,44.40
2023-02-24T03:58:05.767Z,44.30
2023-02-24T04:00:42.776Z,44.21
2023-02-24T04:03:26.725Z,44.23
2023-02-24T04:06:09.072Z,44.27
2023-02-24T04:08:46.482Z,44.26
2023-02-24T04:11:26.295Z,44.30
2023-02-24T04:14:01.954Z,44.27
2023-02-24T04:16:36.543Z,44.41
2023-02-24T04:19:09.707Z,44.42
2023-02-24T04:21:40.158Z,44.26
2023-02-24T04:24:15.989Z,44.56
2023-02-24T04:26:47.065Z,44.56
2023-02-24T04:29:23.123Z,44.63
2023-02-24T04:31:58.640Z,44.70
2023-02-24T04:34:32.366Z,44.73
2023-02-24T04:37:02.467Z,44.82
2023-02-24T04:39:33.612Z,44.92
2023-02-24T04:42:02.290Z,45.07
2023-02-24T04:44:30.693Z,44.97
2023-02-24T04:46:59.187Z,45.21
2023-02-24T04:49:27.916Z,45.17
2023-02-24T04:51:57.219Z,45.17
2023-02-24T04:54:25.766Z,45.28
2023-02-24T04:56:57.303Z,45.32
2023-02-24T04:59:26.846Z,45.37
2023-02-24T05:01:55.668Z,45.35
2023-02-24T05:04:24.206Z,45.49
2023-02-24T05:06:52.655Z,45.63
2023-02-24T05:09:21.357Z,45.58
2023-02-24T05:11:52.567Z,45.66
2023-02-24T05:14:23.073Z,45.77
2023-02-24T05:16:52.114Z,45.84
2023-02-24T05:19:38.697Z,45.85
2023-02-24T05:22:09.925Z,45.90
2023-02-24T05:24:38.729Z,46.05
2023-02-24T05:27:07.422Z,46.20
2023-02-24T05:29:38.349Z,46.29
2023-02-24T05:32:08.420Z,46.21
2023-02-24T05:34:39.111Z,46.15
2023-02-24T05:37:10.701Z,46.28
2023-02-24T05:39:39.497Z,46.16
2023-02-24T05:42:07.934Z,46.16
2023-02-24T05:44:37.714Z,46.52
2023-02-24T05:47:06.582Z,46.33
2023-02-24T05:49:38.818Z,46.28
2023-02-24T05:52:10.317Z,46.35
2023-02-24T05:54:42.013Z,46.30
2023-02-24T05:57:12.900Z,46.08
2023-02-24T05:59:44.653Z,46.06
2023-02-24T06:02:16.244Z,46.27
2023-02-24T06:04:51.289Z,46.12
2023-02-24T06:07:24.850Z,46.15
2023-02-24T06:09:57.354Z,46.14
2023-02-24T06:12:28.851Z,46.26
2023-02-24T06:14:59.271Z,46.35
2023-02-24T06:17:29.252Z,46.20
2023-02-24T06:19:57.775Z,46.23
2023-02-24T06:22:27.706Z,46.44
2023-02-24T06:24:56.916Z,46.53
2023-02-24T06:27:25.727Z,46.52
2023-02-24T06:29:57.743Z,46.67
2023-02-24T06:32:28.074Z,46.62
2023-02-24T06:34:57.580Z,46.74
2023-02-24T06:37:26.319Z,46.87
2023-02-24T06:39:54.866Z,46.81
2023-02-24T06:42:23.381Z,46.90
2023-02-24T06:44:51.810Z,47.02
2023-02-24T06:47:22.829Z,47.11
2023-02-24T06:49:51.581Z,47.03
2023-02-24T06:52:20.004Z,46.97
2023-02-24T06:54:52.504Z,47.01
2023-02-24T06:57:21.009Z,47.02
2023-02-24T06:59:50.948Z,47.08
2023-02-24T07:02:20.802Z,47.16
2023-02-24T07:04:49.237Z,47.11
2023-02-24T07:07:18.970Z,47.21
2023-02-24T07:09:47.506Z,47.13
2023-02-24T07:12:21.187Z,47.28
2023-02-24T07:14:50.944Z,47.28
2023-02-24T07:17:23.376Z,47.28
2023-02-24T07:19:54.641Z,47.37
2023-02-24T07:22:25.304Z,47.33
2023-02-24T07:25:00.498Z,47.27
2023-02-24T07:27:29.227Z,47.34
2023-02-24T07:29:59.332Z,47.42
2023-02-24T07:32:30.534Z,47.36
2023-02-24T07:34:59.631Z,47.30
2023-02-24T07:37:31.764Z,47.53
2023-02-24T07:40:00.330Z,47.38
2023-02-24T07:42:30.663Z,47.33
2023-02-24T07:44:59.125Z,47.42
2023-02-24T07:47:29.663Z,47.30
2023-02-24T07:49:58.199Z,46.89
2023-02-24T07:52:26.643Z,47.05
2023-02-24T07:54:55.506Z,46.88
2023-02-24T07:57:25.237Z,46.69
2023-02-24T07:59:54.218Z,46.62
2023-02-24T08:02:23.865Z,46.47
2023-02-24T08:04:54.314Z,46.45
2023-02-24T08:07:25.662Z,46.12
2023-02-24T08:10:24.488Z,46.10
2023-02-24T08:12:57.256Z,45.85
2023-02-24T08:15:34.257Z,45.57
2023-02-24T08:18:03.106Z,45.47
2023-02-24T08:20:52.145Z,45.23
2023-02-24T08:23:23.584Z,45.15
2023-02-24T08:25:53.782Z,44.76
2023-02-24T08:28:26.928Z,44.51
2023-02-24T08:30:55.616Z,44.22
2023-02-24T08:33:28.432Z,43.79
2023-02-24T08:36:02.040Z,43.59
2023-02-24T08:38:41.995Z,43.34
2023-02-24T08:41:20.363Z,42.92
2023-02-24T08:43:50.229Z,42.26
2023-02-24T08:46:26.526Z,41.95
2023-02-24T08:48:57.639Z,41.70
2023-02-24T08:51:30.639Z,41.56
2023-02-24T08:54:01.985Z,41.46
2023-02-24T08:56:34.846Z,41.20
2023-02-24T08:59:06.458Z,41.23
2023-02-24T09:01:39.172Z,40.98
2023-02-24T09:04:11.664Z,41.06
2023-02-24T09:06:46.388Z,40.65
2023-02-24T09:09:18.639Z,40.36
2023-02-24T09:11:49.545Z,40.46
2023-02-24T09:14:27.257Z,40.56
2023-02-24T09:17:05.597Z,40.84
2023-02-24T09:20:02.406Z,40.45
2023-02-24T09:22:33.246Z,40.40
2023-02-24T09:25:21.742Z,40.43
2023-02-24T09:27:57.136Z,40.30
2023-02-24T09:30:50.997Z,40.15
2023-02-24T09:33:23.137Z,40.17
2023-02-24T09:36:09.607Z,40.13
2023-02-24T09:38:59.520Z,39.72
2023-02-24T09:41:53.773Z,39.78
2023-02-24T09:44:33.422Z,39.56
2023-02-24T09:47:14.166Z,39.52
2023-02-24T09:49:56.378Z,37.19
2023-02-24T09:52:39.854Z,38.36
2023-02-24T09:55:29.567Z,37.96
2023-02-24T09:58:20.024Z,38.11
2023-02-24T10:00:58.147Z,37.93
2023-02-24T10:03:42.778Z,37.41
2023-02-24T10:06:21.666Z,36.63
2023-02-24T10:08:55.828Z,36.22
2023-02-24T10:11:33.984Z,35.97
2023-02-24T10:14:07.377Z,36.29
2023-02-24T10:16:43.177Z,35.89
2023-02-24T10:19:28.117Z,35.22
2023-02-24T10:22:04.206Z,34.84
2023-02-24T10:24:41.367Z,34.22
2023-02-24T10:27:23.989Z,34.30
2023-02-24T10:30:11.233Z,34.29
2023-02-24T10:32:49.286Z,34.07
2023-02-24T10:35:21.027Z,33.62
2023-02-24T10:37:50.371Z,30.73
2023-02-24T10:40:26.647Z,31.94
2023-02-24T10:43:10.698Z,32.17
2023-02-24T10:45:45.414Z,32.24
2023-02-24T10:48:40.318Z,32.27
2023-02-24T10:51:20.406Z,32.25
2023-02-24T10:54:10.220Z,32.04
2023-02-24T10:56:44.777Z,32.34
2023-02-24T10:59:37.453Z,32.51
2023-02-24T11:02:29.828Z,32.39
2023-02-24T11:05:25.065Z,32.04
2023-02-24T11:08:11.705Z,32.23
2023-02-24T11:10:53.383Z,32.10
2023-02-24T11:13:39.789Z,32.22
2023-02-24T11:16:29.292Z,32.12
2023-02-24T11:18:59.065Z,31.98
2023-02-24T11:21:29.153Z,31.76
2023-02-24T11:24:03.074Z,31.81
2023-02-24T11:26:37.851Z,31.91
2023-02-24T11:29:35.157Z,31.95
2023-02-24T11:32:33.641Z,31.86
2023-02-24T11:35:12.607Z,31.76
2023-02-24T11:37:44.931Z,31.63
2023-02-24T11:40:19.937Z,31.44
2023-02-24T11:42:54.369Z,31.48
2023-02-24T11:45:33.610Z,31.44
2023-02-24T11:48:14.939Z,31.12
2023-02-24T11:50:48.515Z,31.20
2023-02-24T11:53:27.332Z,31.00
2023-02-24T11:56:02.890Z,30.75
2023-02-24T11:58:42.716Z,30.50
2023-02-24T12:01:19.787Z,30.22
2023-02-24T12:04:00.717Z,30.27
2023-02-24T12:06:35.410Z,30.36
2023-02-24T12:09:12.861Z,30.66
2023-02-24T12:11:53.613Z,30.53
2023-02-24T12:14:29.567Z,30.28
2023-02-24T12:17:14.273Z,29.99
2023-02-24T12:19:59.124Z,29.92
2023-02-24T12:22:38.600Z,29.75
2023-02-24T12:25:13.302Z,29.53
2023-02-24T12:27:58.673Z,29.22
2023-02-24T12:30:49.007Z,29.14
2023-02-24T12:33:49.692Z,28.98
2023-02-24T12:36:38.262Z,28.57
2023-02-24T12:39:16.280Z,28.38
2023-02-24T12:41:58.552Z,28.04
2023-02-24T12:44:39.631Z,27.90
2023-02-24T12:47:13.944Z,27.73
2023-02-24T12:50:16.748Z,27.68
2023-02-24T12:53:01.641Z,27.18
2023-02-24T12:55:41.390Z,26.00
2023-02-24T12:58:17.644Z,26.37
2023-02-24T13:01:03.157Z,26.92
2023-02-24T13:03:54.052Z,27.03
2023-02-24T13:06:38.105Z,27.25
2023-02-24T13:09:20.652Z,27.74
2023-02-24T13:11:57.586Z,27.86
2023-02-24T13:14:32.266Z,27.60
2023-02-24T13:17:23.989Z,27.37
2023-02-24T13:19:55.969Z,27.13
2023-02-24T13:22:32.457Z,26.93
2023-02-24T13:25:19.683Z,26.25
2023-02-24T13:28:01.402Z,26.27
2023-02-24T13:30:39.433Z,26.13
2023-02-24T13:33:25.749Z,25.94
2023-02-24T13:36:13.693Z,26.10
2023-02-24T13:38:44.949Z,26.20
2023-02-24T13:41:41.830Z,26.75
2023-02-24T13:44:27.612Z,27.02
2023-02-24T13:47:50.952Z,27.22
2023-02-24T13:50:25.255Z,27.51
2023-02-24T13:53:23.817Z,26.96
2023-02-24T13:56:10.823Z,27.17
2023-02-24T13:58:56.606Z,27.07
2023-02-24T14:01:29.101Z,27.44
2023-02-24T14:04:14.610Z,27.51
2023-02-24T14:06:50.225Z,27.61
2023-02-24T14:09:24.716Z,27.78
2023-02-24T14:12:00.477Z,27.44
2023-02-24T14:14:31.560Z,27.94
2023-02-24T14:17:00.468Z,27.77
2023-02-24T14:19:29.213Z,28.04
2023-02-24T14:22:00.385Z,28.27
2023-02-24T14:24:29.933Z,28.47
2023-02-24T14:27:00.533Z,28.42
2023-02-24T14:29:33.253Z,28.68
2023-02-24T14:32:03.268Z,28.82
2023-02-24T14:34:34.649Z,29.24
2023-02-24T14:37:05.269Z,29.01
2023-02-24T14:39:35.357Z,28.97
2023-02-24T14:42:15.907Z,29.14
2023-02-24T14:44:50.802Z,29.21
2023-02-24T14:47:22.707Z,29.44
2023-02-24T14:49:58.065Z,29.17
2023-02-24T14:52:36.434Z,29.53
2023-02-24T14:55:08.998Z,29.71
2023-02-24T14:57:45.207Z,29.33
2023-02-24T15:00:24.081Z,29.82
2023-02-24T15:03:03.435Z,29.62
2023-02-24T15:05:32.498Z,29.83
2023-02-24T15:08:04.081Z,29.79
2023-02-24T15:10:33.132Z,29.77
2023-02-24T15:13:12.073Z,30.27
2023-02-24T15:15:42.825Z,29.81
2023-02-24T15:18:21.391Z,29.92
2023-02-24T15:21:00.023Z,29.99
2023-02-24T15:23:32.779Z,30.06
2023-02-24T15:26:02.386Z,30.25
2023-02-24T15:28:33.181Z,30.20
2023-02-24T15:31:10.888Z,30.54
2023-02-24T15:33:42.517Z,30.48
2023-02-24T15:36:17.325Z,30.58
2023-02-24T15:38:46.711Z,30.78
2023-02-24T15:41:16.110Z,30.77
2023-02-24T15:43:50.880Z,30.60
2023-02-24T15:46:34.961Z,31.09
2023-02-24T15:49:06.366Z,30.70
2023-02-24T15:51:39.901Z,30.98
2023-02-24T15:54:13.778Z,30.86
2023-02-24T15:56:44.007Z,31.12
2023-02-24T15:59:17.204Z,31.11
2023-02-24T16:01:47.374Z,31.28
2023-02-24T16:04:16.593Z,31.09
2023-02-24T16:06:54.780Z,31.21
2023-02-24T16:09:33.869Z,31.32
2023-02-24T16:12:06.826Z,31.47
2023-02-24T16:14:36.077Z,31.13
2023-02-24T16:17:11.029Z,31.57
2023-02-24T16:19:40.078Z,31.42
2023-02-24T16:22:11.421Z,31.37
2023-02-24T16:24:40.119Z,31.49
2023-02-24T16:27:17.758Z,31.48
2023-02-24T16:29:47.025Z,31.69
2023-02-24T16:32:22.344Z,31.67
2023-02-24T16:34:51.668Z,31.70
2023-02-24T16:37:25.153Z,31.92
2023-02-24T16:39:54.851Z,31.90
2023-02-24T16:42:24.463Z,32.06
2023-02-24T16:44:53.338Z,32.08
2023-02-24T16:47:27.313Z,32.28
2023-02-24T16:49:58.208Z,32.36
2023-02-24T16:52:29.086Z,32.29
2023-02-24T16:54:59.101Z,32.28
2023-02-24T16:57:27.980Z,32.24
2023-02-24T16:59:57.018Z,32.39
2023-02-24T17:02:27.501Z,32.42
2023-02-24T17:04:56.548Z,32.29
2023-02-24T17:07:25.824Z,32.36
2023-02-24T17:09:55.432Z,32.63
2023-02-24T17:12:24.824Z,32.51
2023-02-24T17:14:53.481Z,32.59
2023-02-24T17:17:22.458Z,32.60
2023-02-24T17:19:55.071Z,32.75
2023-02-24T17:22:24.628Z,32.70
2023-02-24T17:24:54.125Z,32.83
2023-02-24T17:27:22.715Z,32.86
2023-02-24T17:29:52.104Z,32.93
2023-02-24T17:32:21.798Z,33.10
2023-02-24T17:34:51.268Z,33.10
2023-02-24T17:37:22.508Z,33.22
2023-02-24T17:39:51.530Z,33.29
2023-02-24T17:42:21.870Z,33.25
2023-02-24T17:44:50.729Z,33.23
2023-02-24T17:47:21.063Z,33.55
2023-02-24T17:49:50.651Z,33.49
2023-02-24T17:52:21.662Z,33.50
2023-02-24T17:54:51.345Z,33.55
2023-02-24T17:57:23.236Z,33.62
2023-02-24T17:59:53.117Z,33.73
2023-02-24T18:02:24.193Z,33.78
2023-02-24T18:04:54.489Z,33.78
2023-02-24T18:07:27.272Z,33.98
2023-02-24T18:09:56.405Z,33.89
2023-02-24T18:12:25.822Z,34.00
2023-02-24T18:15:07.478Z,34.00
2023-02-24T18:17:38.240Z,34.21
2023-02-24T18:20:10.160Z,34.22
2023-02-24T18:22:43.181Z,34.35
2023-02-24T18:25:14.361Z,34.24
2023-02-24T18:27:43.937Z,34.35
2023-02-24T18:30:18.317Z,34.53
2023-02-24T18:32:52.013Z,34.48
2023-02-24T18:35:22.631Z,34.45
2023-02-24T18:37:57.089Z,34.57
2023-02-24T18:40:28.974Z,34.52
2023-02-24T18:42:59.408Z,34.58
2023-02-24T18:45:29.593Z,34.50
2023-02-24T18:48:02.283Z,34.71
2023-02-24T18:50:35.209Z,34.75
2023-02-24T18:53:18.209Z,34.82
2023-02-24T18:55:48.942Z,34.76
2023-02-24T18:58:19.351Z,34.88
2023-02-24T19:00:50.106Z,34.88
2023-02-24T19:03:19.482Z,34.94
2023-02-24T19:05:50.879Z,34.90
2023-02-24T19:08:34.583Z,34.95
2023-02-24T19:11:11.338Z,35.06
2023-02-24T19:13:43.578Z,34.94
2023-02-24T19:16:14.421Z,35.31
2023-02-24T19:18:45.247Z,35.11
2023-02-24T19:21:15.651Z,35.23
2023-02-24T19:23:46.813Z,35.37
2023-02-24T19:26:22.964Z,35.34
2023-02-24T19:28:52.842Z,35.48
2023-02-24T19:31:25.135Z,35.60
2023-02-24T19:33:56.777Z,35.86
2023-02-24T19:36:27.103Z,35.79
2023-02-24T19:38:57.830Z,36.15
2023-02-24T19:41:27.536Z,35.90
2023-02-24T19:43:57.095Z,36.37
2023-02-24T19:46:27.055Z,36.47
2023-02-24T19:49:00.147Z,36.31
2023-02-24T19:51:32.078Z,36.43
2023-02-24T19:54:06.466Z,36.42
2023-02-24T19:56:38.320Z,36.56
2023-02-24T19:59:10.401Z,36.66
2023-02-24T20:01:41.096Z,36.72
2023-02-24T20:04:17.033Z,36.67
2023-02-24T20:06:47.058Z,36.83
2023-02-24T20:09:22.588Z,37.19
2023-02-24T20:11:54.836Z,37.22
2023-02-24T20:14:25.221Z,37.26
2023-02-24T20:16:55.932Z,37.43
2023-02-24T20:19:27.360Z,37.53
2023-02-24T20:21:58.656Z,37.77
2023-02-24T20:24:29.755Z,37.59
2023-02-24T20:27:00.644Z,37.94
2023-02-24T20:29:31.496Z,37.92
2023-02-24T20:32:04.033Z,38.07
2023-02-24T20:34:34.511Z,38.05
2023-02-24T20:37:05.591Z,38.04
2023-02-24T20:39:43.048Z,38.11
2023-02-24T20:42:13.625Z,38.34
2023-02-24T20:44:43.981Z,38.48
2023-02-24T20:47:14.269Z,38.38
2023-02-24T20:49:44.094Z,38.65
2023-02-24T20:52:14.400Z,38.75
2023-02-24T20:54:49.490Z,38.84
2023-02-24T20:57:19.412Z,38.86
2023-02-24T21:00:03.024Z,38.84
2023-02-24T21:02:33.979Z,38.91
2023-02-24T21:05:03.664Z,38.81
2023-02-24T21:07:37.425Z,38.81
2023-02-24T21:10:09.229Z,38.81
2023-02-24T21:12:40.079Z,38.80
2023-02-24T21:15:12.552Z,39.32
2023-02-24T21:17:42.425Z,41.28
2023-02-24T21:20:14.404Z,42.32
2023-02-24T21:22:44.166Z,43.19
2023-02-24T21:25:14.682Z,44.09
2023-02-24T21:27:43.303Z,44.68
2023-02-24T21:30:14.156Z,45.15
2023-02-24T21:32:44.145Z,45.99
2023-02-24T21:35:13.144Z,46.25
2023-02-24T21:37:41.640Z,46.52
2023-02-24T21:40:17.625Z,46.68
2023-02-24T21:42:47.109Z,47.14
2023-02-24T21:45:16.796Z,47.42
2023-02-24T21:47:45.457Z,47.74
2023-02-24T21:50:16.040Z,47.79
2023-02-24T21:52:47.286Z,47.83
2023-02-24T21:55:19.243Z,47.85
2023-02-24T21:57:48.507Z,47.89
2023-02-24T22:00:24.166Z,47.83
2023-02-24T22:02:55.606Z,47.69
2023-02-24T22:05:26.614Z,47.44
2023-02-24T22:07:55.102Z,47.33
2023-02-24T22:10:25.630Z,47.25
2023-02-24T22:12:57.780Z,47.08
2023-02-24T22:15:26.183Z,46.77
2023-02-24T22:17:54.618Z,46.52
2023-02-24T22:20:23.210Z,46.39
2023-02-24T22:22:51.593Z,46.16
2023-02-24T22:25:20.184Z,46.08
2023-02-24T22:27:49.972Z,46.00
2023-02-24T22:30:19.205Z,46.01
2023-02-24T22:32:47.638Z,45.92
2023-02-24T22:35:16.556Z,45.90
2023-02-24T22:37:44.984Z,45.61
2023-02-24T22:40:14.531Z,45.35
2023-02-24T22:42:42.950Z,45.24
2023-02-24T22:45:13.486Z,44.87
2023-02-24T22:47:42.018Z,44.91
2023-02-24T22:50:12.669Z,44.63
2023-02-24T22:52:41.514Z,44.64
2023-02-24T22:55:11.657Z,44.52
2023-02-24T22:57:40.173Z,44.53
2023-02-24T23:00:20.124Z,44.47
2023-02-24T23:02:50.109Z,44.22
2023-02-24T23:05:18.775Z,44.04
2023-02-24T23:07:48.521Z,44.18
2023-02-24T23:10:17.451Z,43.89
2023-02-24T23:12:45.926Z,43.95
2023-02-24T23:15:14.566Z,43.91
2023-02-24T23:17:43.044Z,43.83
2023-02-24T23:20:13.833Z,43.87
2023-02-24T23:22:43.087Z,43.60
2023-02-24T23:25:12.817Z,43.75
2023-02-24T23:27:43.027Z,43.61
2023-02-24T23:30:13.235Z,43.58
2023-02-24T23:32:43.938Z,43.58
2023-02-24T23:35:15.379Z,43.65
2023-02-24T23:37:43.855Z,43.68
2023-02-24T23:40:14.799Z,43.71
2023-02-24T23:42:44.000Z,43.66
2023-02-24T23:45:12.890Z,43.80
2023-02-24T23:47:41.295Z,43.76
2023-02-24T23:50:11.436Z,43.96
2023-02-24T23:52:41.172Z,43.88
2023-02-24T23:55:11.195Z,43.92
2023-02-24T23:57:40.114Z,44.03
